Arley, Alabama
Current Conditions -  °F | °C
As of 5:55 PM on Sunday 21 Dec 2014 (Local Time) from KJFX Reporting Station
Broken Clouds Broken Clouds  
Wind Chill: 54°   Ceiling: 2500
Heat Index: 54°   Visibility: 10mi
Dew Point: 46°   Wind: 0mph
Humidity: 77%   Direction: NA
Pressure: 30.06"   Gusts: NA
Location:  34.08°N, 87.21°W
Report Text: KJFX 212355Z AUTO 00000KT 10SM BKN025 12/08 A3006 RMK A02 P-128
Loading
Personal Weather Stations






























Interactive Weather Map New forecast layout! Learn more

10-Day Weather Forecast

Advertisements
Track Severe Weather on mobile